Time;durP1;ratioP1;P1;durP2;ratioP2;P2;SDS_P1;SDS_P2;PMS_P1;PMS_P2;Temp;Humidity;BMP_temperature;BMP_pressure;BME280_temperature;BME280_humidity;BME280_pressure;Samples;Min_cycle;Max_cycle;Signal;HPM_P1;HPM_P2
2024/02/21 00:00:42;;;;;;;10.45;5.47;;;;;;;9.48;46.48;101985.81;5022191;28;20505;-75
2024/02/21 00:03:10;;;;;;;9.75;5.25;;;;;;;9.46;46.79;101977.72;5013938;28;20041;-75
2024/02/21 00:05:38;;;;;;;10.90;5.60;;;;;;;9.48;46.64;101976.72;5023429;28;20069;-75
2024/02/21 00:08:06;;;;;;;9.10;5.15;;;;;;;9.45;46.74;101975.94;5028526;28;20049;-75
2024/02/21 00:10:36;;;;;;;11.35;5.50;;;;;;;9.47;46.96;101970.38;5019570;28;20496;-74
2024/02/21 00:13:04;;;;;;;10.57;5.15;;;;;;;9.46;46.88;101966.78;5061155;23;20068;-75
2024/02/21 00:15:33;;;;;;;10.77;5.28;;;;;;;9.46;47.05;101963.16;5002724;28;20045;-75
2024/02/21 00:18:01;;;;;;;9.15;5.05;;;;;;;9.46;47.07;101960.44;5029629;28;20049;-74
2024/02/21 00:20:30;;;;;;;10.15;4.85;;;;;;;9.45;46.66;101966.88;5037902;28;20106;-75
2024/02/21 00:23:04;;;;;;;9.90;5.20;;;;;;;9.46;46.98;101957.69;5028298;28;20048;-74
2024/02/21 00:25:33;;;;;;;10.70;5.00;;;;;;;9.44;47.25;101949.59;5044780;28;20107;-74
2024/02/21 00:28:03;;;;;;;11.45;5.50;;;;;;;9.46;47.19;101952.22;5031884;28;20055;-76
2024/02/21 00:30:31;;;;;;;11.52;5.00;;;;;;;9.43;46.80;101945.09;5045958;28;20045;-74
2024/02/21 00:32:59;;;;;;;9.93;5.07;;;;;;;9.44;47.18;101933.19;5025943;28;20052;-75
2024/02/21 00:35:27;;;;;;;10.90;5.85;;;;;;;9.44;47.30;101937.78;5045237;28;20051;-74
2024/02/21 00:37:57;;;;;;;9.63;5.50;;;;;;;9.43;47.38;101920.50;5025485;28;20049;-74
2024/02/21 00:40:25;;;;;;;9.30;4.78;;;;;;;9.43;47.22;101917.78;5027968;28;20167;-74
2024/02/21 00:42:53;;;;;;;9.50;4.95;;;;;;;9.44;47.16;101916.81;5035432;28;20097;-74
2024/02/21 00:45:23;;;;;;;11.65;5.30;;;;;;;9.46;47.31;101913.97;5039674;28;20507;-74
2024/02/21 00:47:51;;;;;;;11.23;5.25;;;;;;;9.44;47.28;101915.94;5031065;28;20491;-76
2024/02/21 00:50:19;;;;;;;9.18;5.00;;;;;;;9.43;47.46;101923.25;5045277;28;20048;-74
2024/02/21 00:52:47;;;;;;;10.52;5.55;;;;;;;9.44;47.28;101915.94;5036779;28;20522;-74
2024/02/21 00:55:15;;;;;;;10.35;5.25;;;;;;;9.44;47.27;101914.06;5043115;28;20045;-75
2024/02/21 00:57:43;;;;;;;9.82;4.70;;;;;;;9.44;47.07;101910.47;5039047;28;20049;-75
2024/02/21 01:00:12;;;;;;;13.27;6.25;;;;;;;9.44;47.38;101916.81;5042885;28;20136;-77
2024/02/21 01:02:44;;;;;;;8.98;4.88;;;;;;;9.45;47.03;101912.22;5022690;28;20048;-75
2024/02/21 01:05:12;;;;;;;11.60;5.03;;;;;;;9.42;47.51;101902.38;5033875;28;20045;-75
2024/02/21 01:07:40;;;;;;;8.98;5.20;;;;;;;9.42;47.47;101901.47;5026982;28;20559;-76
2024/02/21 01:10:09;;;;;;;11.18;5.45;;;;;;;9.42;47.39;101907.81;5023812;28;20052;-76
2024/02/21 01:12:37;;;;;;;12.90;5.63;;;;;;;9.42;47.24;101893.28;5024661;28;20418;-76
2024/02/21 01:15:06;;;;;;;10.52;5.18;;;;;;;9.43;47.05;101897.78;5020700;28;20045;-76
2024/02/21 01:17:34;;;;;;;8.65;4.88;;;;;;;9.40;47.60;101900.72;5026739;28;20400;-76
2024/02/21 01:20:05;;;;;;;10.73;5.43;;;;;;;9.42;47.31;101890.56;5021509;28;20060;-75
2024/02/21 01:22:33;;;;;;;8.90;4.88;;;;;;;9.41;47.64;101889.69;5043019;28;20047;-76
2024/02/21 01:25:01;;;;;;;11.18;5.22;;;;;;;9.41;47.66;101872.44;5045368;28;20958;-76
2024/02/21 01:27:29;;;;;;;9.15;5.22;;;;;;;9.42;47.38;101868.69;5044854;28;20070;-75
2024/02/21 01:29:57;;;;;;;10.35;5.40;;;;;;;9.41;47.82;101873.28;5040803;28;20089;-76
2024/02/21 01:32:25;;;;;;;9.95;5.43;;;;;;;9.41;47.68;101869.72;5033441;28;20110;-75
2024/02/21 01:34:53;;;;;;;9.77;5.18;;;;;;;9.41;47.66;101867.81;5029168;28;20037;-76
2024/02/21 01:37:22;;;;;;;13.23;6.72;;;;;;;9.44;47.36;101864.00;5031797;28;20052;-75
2024/02/21 01:39:50;;;;;;;11.98;5.32;;;;;;;9.41;47.29;101856.03;5044533;28;20036;-75
2024/02/21 01:42:18;;;;;;;11.23;5.15;;;;;;;9.41;47.43;101847.84;5030490;28;20112;-75
2024/02/21 01:44:46;;;;;;;10.07;4.60;;;;;;;9.41;47.57;101843.22;5048090;28;20500;-75
2024/02/21 01:47:15;;;;;;;10.95;5.18;;;;;;;9.41;47.45;101843.22;5030383;28;20041;-75
2024/02/21 01:49:43;;;;;;;10.18;5.05;;;;;;;9.42;47.36;101849.56;5048139;28;20037;-75
2024/02/21 01:52:14;;;;;;;9.57;4.80;;;;;;;9.42;47.79;101835.91;5026224;28;20053;-75
2024/02/21 01:54:44;;;;;;;10.23;5.75;;;;;;;9.42;47.32;101834.06;5047687;28;20202;-75
2024/02/21 01:57:12;;;;;;;9.88;5.00;;;;;;;9.41;47.36;101831.47;5042881;28;20669;-74
2024/02/21 01:59:40;;;;;;;9.95;4.97;;;;;;;9.41;47.88;101831.47;5047794;28;20645;-75
2024/02/21 02:02:08;;;;;;;9.93;5.00;;;;;;;9.40;47.66;101836.03;5031566;28;20156;-75
2024/02/21 02:04:36;;;;;;;7.57;4.93;;;;;;;9.42;47.47;101838.63;5046590;28;20047;-75
2024/02/21 02:07:07;;;;;;;9.27;4.90;;;;;;;9.42;47.46;101822.25;5046211;28;20581;-75
2024/02/21 02:09:35;;;;;;;11.65;4.88;;;;;;;9.40;47.69;101816.91;5048670;28;20136;-75
2024/02/21 02:12:08;;;;;;;9.95;4.97;;;;;;;9.42;47.67;101806.72;5047423;28;20197;-75
2024/02/21 02:14:36;;;;;;;10.88;4.47;;;;;;;9.39;47.68;101808.81;5023593;28;20499;-75
2024/02/21 02:17:04;;;;;;;9.05;4.68;;;;;;;9.40;47.43;101795.06;5041831;28;20587;-75
2024/02/21 02:19:32;;;;;;;8.13;4.65;;;;;;;9.40;47.76;101795.06;5048069;28;20068;-75
2024/02/21 02:22:10;;;;;;;10.13;4.88;;;;;;;9.42;47.57;101798.53;5048158;28;20041;-75
2024/02/21 02:24:40;;;;;;;8.98;5.10;;;;;;;9.41;47.58;101779.53;5041474;28;20045;-75
2024/02/21 02:27:08;;;;;;;12.68;5.57;;;;;;;9.40;47.33;101777.78;5045776;28;20051;-75
2024/02/21 02:29:36;;;;;;;9.40;4.97;;;;;;;9.39;47.32;101779.63;5028168;28;20106;-76
2024/02/21 02:32:04;;;;;;;10.32;4.90;;;;;;;9.39;47.40;101776.91;5042431;28;20123;-75
2024/02/21 02:34:32;;;;;;;9.85;5.00;;;;;;;9.38;47.47;101766.97;5040767;28;20049;-75
2024/02/21 02:37:00;;;;;;;11.98;4.82;;;;;;;9.39;47.28;101762.38;5040360;28;20065;-75
2024/02/21 02:39:28;;;;;;;9.10;4.68;;;;;;;9.38;47.94;101766.03;5027858;28;20044;-75
2024/02/21 02:41:58;;;;;;;8.85;4.53;;;;;;;9.39;47.76;101767.84;5047393;28;20045;-75
2024/02/21 02:44:26;;;;;;;9.38;5.07;;;;;;;9.37;47.81;101773.38;5038852;28;20033;-75
2024/02/21 02:46:54;;;;;;;8.50;5.00;;;;;;;9.37;47.40;101772.47;5026807;28;20115;-76
2024/02/21 02:49:22;;;;;;;10.45;5.20;;;;;;;9.37;47.77;101773.38;5041695;28;20064;-75
2024/02/21 02:51:50;;;;;;;9.10;5.20;;;;;;;9.37;47.79;101781.56;5048005;28;20127;-75
2024/02/21 02:54:18;;;;;;;10.35;4.95;;;;;;;9.36;47.89;101774.34;5045523;28;20048;-74
2024/02/21 02:56:46;;;;;;;12.27;5.53;;;;;;;9.37;47.94;101767.03;5025642;28;20037;-77
2024/02/21 02:59:15;;;;;;;10.98;5.45;;;;;;;9.38;47.70;101771.50;5030494;28;20045;-75
2024/02/21 03:01:43;;;;;;;9.07;4.88;;;;;;;9.36;47.39;101763.41;5033461;28;20052;-74
2024/02/21 03:04:11;;;;;;;9.77;4.80;;;;;;;9.36;47.72;101757.94;5046045;28;20072;-74
2024/02/21 03:06:39;;;;;;;8.98;4.60;;;;;;;9.36;47.44;101743.41;5045154;28;20043;-74
2024/02/21 03:09:08;;;;;;;9.35;5.03;;;;;;;9.36;47.60;101743.41;5031860;28;20045;-76
2024/02/21 03:11:40;;;;;;;8.80;4.85;;;;;;;9.36;47.43;101737.94;5032890;28;20063;-74
2024/02/21 03:14:09;;;;;;;9.02;4.35;;;;;;;9.32;47.78;101733.69;5043345;28;20045;-75
2024/02/21 03:16:38;;;;;;;7.78;4.10;;;;;;;9.37;47.73;101736.97;5047364;28;20071;-74
2024/02/21 03:19:06;;;;;;;9.27;4.15;;;;;;;9.34;47.77;101734.44;5026255;28;20053;-74
2024/02/21 03:21:34;;;;;;;9.38;4.25;;;;;;;9.34;47.85;101720.78;5042167;28;20052;-74
2024/02/21 03:24:02;;;;;;;8.35;4.35;;;;;;;9.34;47.61;101721.66;5024902;28;20128;-75
2024/02/21 03:26:30;;;;;;;10.65;4.65;;;;;;;9.33;47.73;101714.44;5047201;28;20051;-74
2024/02/21 03:28:58;;;;;;;11.98;4.90;;;;;;;9.32;47.86;101709.97;5040701;28;20037;-75
2024/02/21 03:31:26;;;;;;;10.50;4.63;;;;;;;9.33;47.53;101702.66;5046237;28;20494;-74
2024/02/21 03:34:00;;;;;;;9.40;4.60;;;;;;;9.33;47.42;101717.16;5042752;28;20051;-74
2024/02/21 03:36:28;;;;;;;7.80;4.60;;;;;;;9.31;47.59;101719.16;5026392;28;20040;-74
2024/02/21 03:38:56;;;;;;;10.35;4.72;;;;;;;9.30;47.36;101717.41;5040530;28;20064;-74
2024/02/21 03:41:24;;;;;;;10.05;4.47;;;;;;;9.31;47.52;101713.69;5045978;28;20044;-75
2024/02/21 03:43:52;;;;;;;9.50;4.47;;;;;;;9.31;47.84;101707.34;5043540;28;20611;-75
2024/02/21 03:46:20;;;;;;;10.23;4.55;;;;;;;9.30;47.87;101708.31;5045711;28;20140;-75
2024/02/21 03:48:48;;;;;;;8.00;3.97;;;;;;;9.30;47.50;101722.88;5046403;28;20361;-74
2024/02/21 03:51:17;;;;;;;11.15;4.65;;;;;;;9.31;47.86;101719.16;5041017;28;20045;-75
2024/02/21 03:53:45;;;;;;;8.05;4.45;;;;;;;9.31;47.77;101707.34;5041488;28;20141;-75
2024/02/21 03:56:12;;;;;;;8.65;4.05;;;;;;;9.31;47.95;101705.50;5027481;28;20887;-75
2024/02/21 03:58:40;;;;;;;8.23;4.30;;;;;;;9.32;47.88;101706.38;5044339;28;20041;-75
2024/02/21 04:01:08;;;;;;;8.13;4.43;;;;;;;9.31;47.80;101707.34;5046235;28;20420;-75
2024/02/21 04:03:36;;;;;;;7.05;4.15;;;;;;;9.31;47.80;101705.50;5028817;28;20036;-75
2024/02/21 04:06:05;;;;;;;7.30;4.20;;;;;;;9.31;47.82;101707.34;5025357;28;20516;-75
2024/02/21 04:08:34;;;;;;;11.52;4.22;;;;;;;9.33;47.71;101708.97;5027766;28;20530;-75
2024/02/21 04:11:02;;;;;;;8.60;4.20;;;;;;;9.31;47.77;101699.16;5023031;28;20057;-75
2024/02/21 04:13:30;;;;;;;7.43;3.80;;;;;;;9.31;47.68;101701.88;5028028;28;20045;-74
2024/02/21 04:15:58;;;;;;;7.53;3.53;;;;;;;9.30;47.47;101698.28;5023198;28;20040;-75
2024/02/21 04:18:26;;;;;;;9.18;4.20;;;;;;;9.31;47.67;101696.44;5046193;28;20040;-75
2024/02/21 04:20:54;;;;;;;8.75;4.00;;;;;;;9.31;47.68;101696.44;5046440;28;20098;-74
2024/02/21 04:23:22;;;;;;;6.53;3.70;;;;;;;9.30;47.99;101691.94;5045034;28;20056;-75
2024/02/21 04:25:52;;;;;;;7.43;3.72;;;;;;;9.31;47.84;101683.63;5024238;28;20084;-75
2024/02/21 04:28:20;;;;;;;8.00;3.72;;;;;;;9.30;48.06;101684.63;5027466;28;20057;-74
2024/02/21 04:30:48;;;;;;;9.25;3.90;;;;;;;9.31;47.44;101688.22;5039334;28;20106;-75
2024/02/21 04:33:16;;;;;;;6.57;3.35;;;;;;;9.31;47.99;101689.09;5044366;28;20137;-75
2024/02/21 04:35:44;;;;;;;8.88;3.72;;;;;;;9.31;47.78;101688.22;5045919;28;20131;-75
2024/02/21 04:38:11;;;;;;;7.40;3.58;;;;;;;9.31;47.26;101685.50;5045860;28;20092;-75
2024/02/21 04:40:39;;;;;;;8.82;3.65;;;;;;;9.31;47.75;101689.09;5028001;28;20131;-75
2024/02/21 04:43:09;;;;;;;9.18;4.38;;;;;;;9.32;47.46;101690.88;5025492;28;20053;-74
2024/02/21 04:45:36;;;;;;;8.07;3.83;;;;;;;9.32;48.04;101682.66;5027133;28;20076;-74
2024/02/21 04:48:05;;;;;;;6.03;3.38;;;;;;;9.32;47.51;101695.44;5026111;28;20096;-74
2024/02/21 04:50:33;;;;;;;7.38;4.18;;;;;;;9.32;47.43;101695.44;5046101;28;20041;-74
2024/02/21 04:53:01;;;;;;;7.20;3.45;;;;;;;9.32;47.38;101692.72;5043862;28;20087;-75
2024/02/21 04:55:29;;;;;;;11.18;4.43;;;;;;;9.32;47.77;101682.66;5031088;28;20067;-75
2024/02/21 04:57:57;;;;;;;9.23;3.75;;;;;;;9.32;47.42;101684.53;5029533;28;20152;-75
2024/02/21 05:00:26;;;;;;;6.57;3.50;;;;;;;9.32;47.07;101682.66;5028909;28;20037;-75
2024/02/21 05:02:54;;;;;;;8.00;3.65;;;;;;;9.31;47.60;101680.91;5024850;28;20047;-75
2024/02/21 05:05:22;;;;;;;9.65;4.18;;;;;;;9.30;47.61;101675.53;5045325;28;20037;-76
2024/02/21 05:07:50;;;;;;;7.07;3.78;;;;;;;9.30;47.64;101681.88;5027413;28;20223;-75
2024/02/21 05:10:19;;;;;;;8.18;3.78;;;;;;;9.31;47.42;101678.19;5041763;28;20083;-75
2024/02/21 05:12:47;;;;;;;6.80;3.35;;;;;;;9.31;47.64;101678.19;5036921;28;20053;-75
2024/02/21 05:15:15;;;;;;;6.43;3.50;;;;;;;9.31;47.03;101683.63;5045109;28;20532;-75
2024/02/21 05:17:44;;;;;;;6.22;3.28;;;;;;;9.32;47.49;101682.66;5040376;28;20377;-75
2024/02/21 05:20:12;;;;;;;7.95;4.00;;;;;;;9.29;47.18;101669.22;5044300;28;20052;-75
2024/02/21 05:22:43;;;;;;;7.13;4.10;;;;;;;9.30;47.32;101670.97;5045887;28;20037;-75
2024/02/21 05:25:11;;;;;;;7.38;3.63;;;;;;;9.30;47.53;101670.09;5042399;28;20037;-75
2024/02/21 05:27:39;;;;;;;8.25;3.40;;;;;;;9.30;47.55;101670.09;5034421;28;20049;-75
2024/02/21 05:30:08;;;;;;;5.97;3.65;;;;;;;9.30;47.07;101667.34;5045990;28;20396;-75
2024/02/21 05:32:36;;;;;;;7.82;3.47;;;;;;;9.29;47.16;101662.88;5039253;28;20050;-76
2024/02/21 05:35:06;;;;;;;7.50;3.55;;;;;;;9.31;46.92;101660.91;5041957;28;20516;-75
2024/02/21 05:37:34;;;;;;;8.23;3.35;;;;;;;9.28;47.32;101653.78;5042210;28;20392;-75
2024/02/21 05:40:02;;;;;;;6.13;3.30;;;;;;;9.29;47.33;101654.66;5038279;28;20045;-75
2024/02/21 05:42:30;;;;;;;5.50;3.17;;;;;;;9.28;47.25;101656.53;5038693;28;20099;-75
2024/02/21 05:44:58;;;;;;;6.00;3.03;;;;;;;9.28;47.43;101658.38;5026204;28;20052;-75
2024/02/21 05:47:26;;;;;;;8.48;3.83;;;;;;;9.29;47.53;101657.41;5023650;28;20080;-75
2024/02/21 05:49:54;;;;;;;6.22;3.30;;;;;;;9.29;47.02;101651.94;5029469;28;20045;-75
2024/02/21 05:52:23;;;;;;;7.93;3.20;;;;;;;9.29;47.33;101652.81;5019373;28;20045;-75
2024/02/21 05:54:51;;;;;;;6.97;3.65;;;;;;;9.28;47.41;101652.91;5028714;28;20075;-75
2024/02/21 05:57:19;;;;;;;7.72;3.50;;;;;;;9.28;47.23;101662.00;5027492;28;20589;-75
2024/02/21 05:59:47;;;;;;;6.95;4.80;;;;;;;9.28;47.17;101642.00;5044632;28;20079;-75
2024/02/21 06:02:15;;;;;;;7.03;4.15;;;;;;;9.28;47.47;101651.06;5025836;28;20037;-74
2024/02/21 06:04:44;;;;;;;8.13;4.35;;;;;;;9.28;47.11;101639.25;5043673;28;20044;-75
2024/02/21 06:07:12;;;;;;;9.40;4.38;;;;;;;9.28;47.13;101629.22;5028145;28;20118;-75
2024/02/21 06:09:41;;;;;;;9.75;4.57;;;;;;;9.30;47.44;101629.09;5029570;28;20045;-77
2024/02/21 06:12:09;;;;;;;7.00;3.58;;;;;;;9.27;46.99;101619.25;5047331;28;20635;-74
2024/02/21 06:14:38;;;;;;;8.35;3.65;;;;;;;9.28;47.39;101620.13;5031895;28;20052;-74
2024/02/21 06:17:06;;;;;;;6.45;3.35;;;;;;;9.27;47.05;101608.34;5041178;28;20063;-74
2024/02/21 06:19:33;;;;;;;7.35;3.17;;;;;;;9.27;46.88;101612.94;5033065;28;20045;-74
2024/02/21 06:22:07;;;;;;;6.22;3.50;;;;;;;9.27;47.12;101611.06;5027600;28;20473;-74
2024/02/21 06:24:36;;;;;;;6.80;3.38;;;;;;;9.27;47.49;101622.00;5045961;28;20044;-75
2024/02/21 06:27:06;;;;;;;6.65;2.90;;;;;;;9.28;47.42;101612.81;5045236;28;20128;-75
2024/02/21 06:29:38;;;;;;;6.68;3.20;;;;;;;9.26;47.45;101603.84;5024976;28;20041;-74
2024/02/21 06:32:06;;;;;;;6.25;2.95;;;;;;;9.26;47.38;101602.97;5039920;28;20059;-77
2024/02/21 06:34:34;;;;;;;7.00;3.58;;;;;;;9.26;47.13;101603.84;5047765;28;20429;-74
2024/02/21 06:37:02;;;;;;;5.45;3.25;;;;;;;9.27;46.94;101599.25;5047893;28;20077;-74
2024/02/21 06:39:30;;;;;;;6.20;3.25;;;;;;;9.26;47.13;101598.38;5045479;28;20076;-77
2024/02/21 06:41:58;;;;;;;6.95;3.10;;;;;;;9.25;46.84;101590.28;5037871;28;20040;-73
2024/02/21 06:44:36;;;;;;;5.93;3.28;;;;;;;9.25;47.28;101593.03;5026648;28;20117;-75
2024/02/21 06:47:04;;;;;;;5.50;2.55;;;;;;;9.25;47.28;101591.19;5043484;28;20116;-75
2024/02/21 06:49:32;;;;;;;6.50;3.42;;;;;;;9.25;47.21;101582.09;5029615;28;20693;-76
2024/02/21 06:52:00;;;;;;;5.85;3.10;;;;;;;9.25;47.39;101579.38;5043628;28;20045;-74
2024/02/21 06:54:28;;;;;;;6.43;3.05;;;;;;;9.24;47.31;101577.66;5045582;28;20037;-74
2024/02/21 06:56:56;;;;;;;5.95;3.20;;;;;;;9.23;47.29;101573.16;5046619;28;20110;-74
2024/02/21 06:59:24;;;;;;;7.43;3.13;;;;;;;9.23;47.02;101570.44;5046848;28;20060;-74
2024/02/21 07:01:55;;;;;;;5.63;3.13;;;;;;;9.24;46.72;101569.47;5046397;28;20114;-74
2024/02/21 07:04:23;;;;;;;6.35;3.17;;;;;;;9.23;47.20;101573.16;5045725;28;20444;-74
2024/02/21 07:06:51;;;;;;;6.20;3.00;;;;;;;9.22;47.36;101577.75;5047343;28;20048;-74
2024/02/21 07:09:20;;;;;;;6.80;3.70;;;;;;;9.22;47.10;101568.69;5046759;28;20053;-74
2024/02/21 07:11:47;;;;;;;6.72;3.10;;;;;;;9.23;47.00;101573.16;5040125;28;20140;-74
2024/02/21 07:14:16;;;;;;;5.95;3.40;;;;;;;9.23;46.65;101575.91;5044677;28;20041;-74
2024/02/21 07:16:44;;;;;;;6.70;3.03;;;;;;;9.23;46.67;101581.38;5029959;28;20068;-74
2024/02/21 07:19:13;;;;;;;6.57;3.03;;;;;;;9.24;46.54;101581.25;5045360;28;20144;-74
2024/02/21 07:21:42;;;;;;;5.88;2.90;;;;;;;9.23;46.90;101574.03;5046817;28;20120;-74
2024/02/21 07:24:10;;;;;;;5.43;2.70;;;;;;;9.23;46.69;101573.16;5046189;28;20077;-74
2024/02/21 07:26:38;;;;;;;5.97;2.90;;;;;;;9.24;46.91;101578.53;5041189;28;20051;-74
2024/02/21 07:29:06;;;;;;;5.72;2.83;;;;;;;9.22;46.80;101575.03;5040663;28;20404;-74
2024/02/21 07:31:39;;;;;;;5.22;2.85;;;;;;;9.25;46.70;101573.91;5040841;28;20060;-73
2024/02/21 07:34:08;;;;;;;5.22;2.63;;;;;;;9.22;46.77;101571.41;5047899;28;20076;-76
2024/02/21 07:36:38;;;;;;;5.63;2.42;;;;;;;9.23;46.59;101568.59;5040693;28;20140;-74
2024/02/21 07:39:06;;;;;;;6.60;2.50;;;;;;;9.22;46.74;101568.69;5022835;28;20049;-73
2024/02/21 07:41:35;;;;;;;5.38;2.50;;;;;;;9.22;46.95;101565.94;5040368;28;20159;-73
2024/02/21 07:44:03;;;;;;;7.80;3.22;;;;;;;9.22;46.77;101564.09;5024293;28;20049;-75
2024/02/21 07:46:31;;;;;;;5.38;2.75;;;;;;;9.22;46.55;101555.03;5042041;28;20395;-75
2024/02/21 07:48:59;;;;;;;6.05;3.10;;;;;;;9.21;47.01;101558.75;5028794;28;20577;-75
2024/02/21 07:51:28;;;;;;;6.70;3.45;;;;;;;9.22;46.82;101563.22;5019864;28;20051;-76
2024/02/21 07:53:58;;;;;;;6.93;3.00;;;;;;;9.21;46.77;101558.75;5026434;28;20114;-76
2024/02/21 07:56:28;;;;;;;6.15;3.17;;;;;;;9.21;46.93;101554.16;5044689;28;20130;-76
2024/02/21 07:58:56;;;;;;;5.85;2.92;;;;;;;9.20;47.06;101546.06;5042764;28;20056;-76
2024/02/21 08:01:24;;;;;;;6.13;2.55;;;;;;;9.20;46.85;101537.88;5027273;28;20038;-76
2024/02/21 08:03:52;;;;;;;6.55;2.65;;;;;;;9.19;46.84;101537.00;5040570;28;20056;-76
2024/02/21 08:06:20;;;;;;;6.60;2.65;;;;;;;9.20;46.92;101543.34;5025305;28;20049;-76
2024/02/21 08:08:48;;;;;;;6.78;2.75;;;;;;;9.19;47.08;101527.94;5037400;28;20053;-76
2024/02/21 08:11:17;;;;;;;5.38;2.53;;;;;;;9.20;47.18;101532.41;5042491;28;20047;-76
2024/02/21 08:13:46;;;;;;;8.38;2.88;;;;;;;9.19;47.24;101531.53;5036157;28;20488;-76
2024/02/21 08:16:14;;;;;;;5.20;2.67;;;;;;;9.19;47.05;101520.59;5039514;28;20048;-75
2024/02/21 08:18:43;;;;;;;5.30;2.65;;;;;;;9.18;47.13;101509.78;5026466;28;20040;-76
2024/02/21 08:21:11;;;;;;;9.23;3.10;;;;;;;9.18;46.84;101520.72;5046493;28;20048;-75
2024/02/21 08:23:39;;;;;;;4.90;2.63;;;;;;;9.18;47.18;101507.94;5025627;28;20044;-76
2024/02/21 08:26:07;;;;;;;7.32;2.65;;;;;;;9.18;46.93;101498.88;5027048;28;20049;-76
2024/02/21 08:28:37;;;;;;;7.55;3.17;;;;;;;9.19;46.63;101492.41;5047827;28;20068;-76
2024/02/21 08:31:04;;;;;;;5.88;2.78;;;;;;;9.18;46.89;101488.81;5041716;28;20041;-76
2024/02/21 08:33:32;;;;;;;7.32;3.25;;;;;;;9.18;46.97;101498.88;5044503;28;20523;-76
2024/02/21 08:36:00;;;;;;;8.02;3.05;;;;;;;9.18;47.00;101493.41;5028652;28;20055;-76
2024/02/21 08:38:28;;;;;;;7.82;3.10;;;;;;;9.18;46.42;101485.22;5025243;28;20098;-76
2024/02/21 08:40:56;;;;;;;7.65;2.92;;;;;;;9.17;46.83;101489.78;5043511;28;20045;-76
2024/02/21 08:43:24;;;;;;;7.97;3.00;;;;;;;9.18;46.83;101479.75;5026861;28;20351;-76
2024/02/21 08:45:53;;;;;;;6.80;3.13;;;;;;;9.18;46.97;101490.66;5047070;28;20045;-76
2024/02/21 08:48:22;;;;;;;6.10;2.92;;;;;;;9.17;46.78;101488.91;5046216;28;20041;-76
2024/02/21 08:50:51;;;;;;;5.60;2.75;;;;;;;9.16;46.93;101471.69;5042342;28;20037;-75
2024/02/21 08:53:19;;;;;;;9.10;3.47;;;;;;;9.16;46.79;101468.97;5045017;28;20516;-75
2024/02/21 08:55:47;;;;;;;7.05;3.33;;;;;;;9.16;46.98;101470.81;5041583;28;20071;-75
2024/02/21 08:58:15;;;;;;;9.10;3.38;;;;;;;9.15;46.76;101464.47;5018700;28;20535;-75
2024/02/21 09:00:45;;;;;;;8.73;3.22;;;;;;;9.17;47.29;101461.59;5036300;28;20570;-76
2024/02/21 09:03:15;;;;;;;7.03;3.35;;;;;;;9.17;46.84;101464.34;5039749;28;20590;-76
2024/02/21 09:05:43;;;;;;;6.57;2.95;;;;;;;9.16;47.10;101454.44;5042770;28;20044;-76
2024/02/21 09:08:11;;;;;;;8.85;3.72;;;;;;;9.16;47.21;101451.69;5040180;28;20045;-76
2024/02/21 09:10:40;;;;;;;6.85;3.60;;;;;;;9.16;47.05;101446.25;5018994;28;20050;-76
2024/02/21 09:13:08;;;;;;;8.85;3.33;;;;;;;9.14;46.75;101446.34;5024091;28;20086;-76
2024/02/21 09:15:36;;;;;;;7.65;3.50;;;;;;;9.15;47.20;101436.28;5042862;28;20151;-76
2024/02/21 09:18:04;;;;;;;6.63;3.10;;;;;;;9.15;46.80;101433.56;5040877;28;20110;-76
2024/02/21 09:20:34;;;;;;;7.97;3.10;;;;;;;9.15;46.65;101434.44;5038660;28;20037;-76
2024/02/21 09:23:02;;;;;;;6.75;2.88;;;;;;;9.14;46.71;101435.41;5025017;28;20045;-76
2024/02/21 09:25:31;;;;;;;5.88;3.20;;;;;;;9.15;46.97;101434.44;5017982;28;20450;-76
2024/02/21 09:28:02;;;;;;;9.65;3.60;;;;;;;9.16;46.90;101433.47;5044208;28;20417;-77
2024/02/21 09:30:30;;;;;;;7.85;3.25;;;;;;;9.15;46.95;101426.25;5028824;28;20106;-76
2024/02/21 09:32:59;;;;;;;6.40;3.28;;;;;;;9.16;46.77;101428.00;5017211;28;20072;-76
2024/02/21 09:35:27;;;;;;;7.80;3.78;;;;;;;9.16;46.83;101416.19;5025274;28;20052;-76
2024/02/21 09:37:57;;;;;;;6.03;3.25;;;;;;;9.18;47.45;101411.47;5025454;28;20085;-76
2024/02/21 09:40:26;;;;;;;8.30;3.55;;;;;;;9.16;47.12;101408.00;5024125;28;20045;-76
2024/02/21 09:43:06;;;;;;;8.90;3.35;;;;;;;9.19;47.33;101403.16;5042832;28;20036;-76
2024/02/21 09:45:35;;;;;;;5.57;3.05;;;;;;;9.18;47.24;101397.81;5048920;28;20053;-76
2024/02/21 09:48:32;;;;;;;6.35;3.00;;;;;;;9.17;47.05;101401.53;5031710;28;20469;-76
2024/02/21 09:51:03;;;;;;;8.13;3.10;;;;;;;9.17;47.13;101393.34;5020653;28;20045;-77
2024/02/21 09:53:35;;;;;;;5.90;3.03;;;;;;;9.20;46.95;101391.28;5026977;28;20064;-76
2024/02/21 09:56:04;;;;;;;5.30;3.08;;;;;;;9.20;46.94;101385.81;5042693;28;20045;-76
2024/02/21 09:58:33;;;;;;;5.00;2.60;;;;;;;9.20;46.81;101383.06;5031391;28;20040;-75
2024/02/21 10:01:01;;;;;;;6.43;3.33;;;;;;;9.21;46.81;101390.28;5030617;28;20053;-76
2024/02/21 10:03:38;;;;;;;5.68;3.30;;;;;;;9.22;46.84;101385.69;5046046;28;20064;-76
2024/02/21 10:06:06;;;;;;;5.93;3.03;;;;;;;9.24;46.71;101386.47;5042214;28;20048;-76
2024/02/21 10:08:36;;;;;;;5.57;2.85;;;;;;;9.27;46.81;101389.81;5048722;28;20385;-76
2024/02/21 10:11:05;;;;;;;5.90;3.10;;;;;;;9.27;46.74;101395.28;5023716;28;20045;-76
2024/02/21 10:13:33;;;;;;;7.47;3.47;;;;;;;9.28;46.33;101386.13;5045850;28;20048;-76
2024/02/21 10:16:07;;;;;;;5.82;2.60;;;;;;;9.32;46.06;101390.38;5016254;28;20045;-76
2024/02/21 10:18:36;;;;;;;4.53;2.60;;;;;;;9.30;46.01;101386.88;5048108;28;20075;-77
2024/02/21 10:21:06;;;;;;;4.88;2.60;;;;;;;9.33;45.94;101375.72;5050525;28;20044;-76
2024/02/21 10:23:45;;;;;;;5.43;2.45;;;;;;;9.36;45.16;101372.75;5049459;28;20041;-76
2024/02/21 10:26:14;;;;;;;6.18;2.50;;;;;;;9.35;46.30;101376.47;5029749;28;20396;-76
2024/02/21 10:28:44;;;;;;;4.32;2.40;;;;;;;9.38;46.02;101364.47;5031188;28;20484;-76
2024/02/21 10:31:22;;;;;;;4.32;2.30;;;;;;;9.40;44.90;101363.41;5046152;28;20047;-76
2024/02/21 10:33:55;;;;;;;4.53;2.20;;;;;;;9.41;45.42;101356.91;5046852;28;20044;-77
2024/02/21 10:36:24;;;;;;;4.35;2.28;;;;;;;9.41;45.88;101353.34;5031522;28;20041;-76
2024/02/21 10:38:54;;;;;;;4.07;2.03;;;;;;;9.44;45.36;101350.34;5042865;28;20048;-76
2024/02/21 10:41:24;;;;;;;5.32;2.28;;;;;;;9.44;45.45;101337.56;5038281;28;20037;-76
2024/02/21 10:43:53;;;;;;;4.53;2.30;;;;;;;9.47;45.78;101331.03;5035945;28;20029;-76
2024/02/21 10:46:23;;;;;;;4.93;2.30;;;;;;;9.48;45.70;101334.63;5037627;28;20037;-76
2024/02/21 10:49:06;;;;;;;4.82;2.40;;;;;;;9.51;45.24;101321.59;5023930;28;20032;-76
2024/02/21 10:51:36;;;;;;;4.80;2.30;;;;;;;9.49;45.88;101320.84;5025899;28;20041;-76
2024/02/21 10:54:19;;;;;;;5.53;2.40;;;;;;;9.55;44.91;101304.00;5028557;28;20065;-75
2024/02/21 10:56:50;;;;;;;7.35;2.70;;;;;;;9.53;45.54;101299.63;5043668;28;20427;-76
2024/02/21 10:59:20;;;;;;;4.45;2.25;;;;;;;9.54;45.39;101296.78;5031773;28;20075;-76
2024/02/21 11:01:48;;;;;;;4.47;2.50;;;;;;;9.57;45.64;101284.75;5028051;28;20131;-76
2024/02/21 11:04:17;;;;;;;5.50;2.60;;;;;;;9.59;45.49;101280.00;5039373;28;20056;-76
2024/02/21 11:06:46;;;;;;;4.10;2.13;;;;;;;9.61;45.18;101276.19;5022544;28;20045;-77
2024/02/21 11:09:16;;;;;;;6.78;2.72;;;;;;;9.63;45.14;101260.53;5047491;28;20459;-76
2024/02/21 11:11:45;;;;;;;5.68;2.45;;;;;;;9.65;45.60;101261.31;5021680;28;20120;-75
2024/02/21 11:14:20;;;;;;;5.47;2.50;;;;;;;9.70;44.67;101244.53;5024619;28;20430;-76
2024/02/21 11:16:48;;;;;;;5.60;2.53;;;;;;;9.68;45.47;101225.50;5027466;28;20043;-76
2024/02/21 11:19:21;;;;;;;6.38;2.83;;;;;;;9.74;44.41;101233.22;5042894;28;20079;-77
2024/02/21 11:21:49;;;;;;;;;;;;;;;9.49;45.15;101211.56;5026722;28;20509;-76
2024/02/21 11:24:29;;;;;;;5.82;2.28;;;;;;;9.76;44.28;101200.31;5041703;28;20016;-76
2024/02/21 11:26:58;;;;;;;4.80;2.63;;;;;;;9.78;45.02;101181.94;5022314;28;20107;-76
2024/02/21 11:29:26;;;;;;;5.18;2.60;;;;;;;9.82;44.88;101181.56;5047857;28;20411;-76
2024/02/21 11:31:54;;;;;;;6.68;2.80;;;;;;;9.84;44.90;101181.44;5041444;28;20036;-76
2024/02/21 11:34:22;;;;;;;3.97;2.33;;;;;;;9.87;45.13;101166.66;5048999;28;20550;-76
2024/02/21 11:36:51;;;;;;;5.38;2.47;;;;;;;9.89;44.51;101154.63;5023497;28;20060;-76
2024/02/21 11:39:21;;;;;;;4.95;2.30;;;;;;;9.92;44.89;101154.38;5032609;28;20069;-77